< < Back
Terminal Aerodrome Forecast


Current Version              Previous Versions:   1  2  3  4  5  6  7  8  9  

Terminal Aerodrome Forecast

239
FTUS42 KGSP 311459 AAA
TAFCLT
TAF AMD
KCLT 311459Z 3115/0112 07004KT P6SM FEW050 SCT160
     FM311700 11006KT P6SM SCT050
      TEMPO 3117/3121 BKN050
     FM010400 17003KT P6SM SCT130 SCT250=

Latest METAR

727
SAUS70 KWBC 312300 RRM
MTRCLT
METAR KCLT 312252Z 18009KT 10SM FEW050 FEW120 SCT250 31/19 A2992 RMK AO2
SLP122 T03060194


USA.gov is the U.S. government's official web portal to all federal, state and local government web resources and services.